Time;durP1;ratioP1;P1;durP2;ratioP2;P2;SDS_P1;SDS_P2;PMS_P1;PMS_P2;Temp;Humidity;BMP_temperature;BMP_pressure;BME280_temperature;BME280_humidity;BME280_pressure;Samples;Min_cycle;Max_cycle;Signal;HPM_P1;HPM_P2
2022/09/16 00:00:01;;;;;;;9.10;3.98;;;;;;;13.49;98.92;95585.50;1717003;83;21018;-89
2022/09/16 00:02:27;;;;;;;8.28;3.47;;;;;;;13.55;98.89;95584.65;1713105;82;21057;-89
2022/09/16 00:04:55;;;;;;;4.30;3.52;;;;;;;13.55;98.72;95582.04;1714693;82;21092;-89
2022/09/16 00:07:20;;;;;;;6.83;4.00;;;;;;;13.58;98.88;95585.51;1720240;82;20948;-89
2022/09/16 00:09:46;;;;;;;7.03;4.28;;;;;;;13.60;98.74;95583.98;1705974;82;20981;-86
2022/09/16 00:12:12;;;;;;;6.92;5.08;;;;;;;13.59;98.87;95592.32;1718977;82;20969;-86
2022/09/16 00:14:38;;;;;;;8.80;4.87;;;;;;;13.58;98.45;95589.94;1717056;82;21027;-87
2022/09/16 00:17:03;;;;;;;5.83;3.65;;;;;;;13.54;98.04;95605.24;1722776;82;21356;-87
2022/09/16 00:19:29;;;;;;;5.65;3.65;;;;;;;13.44;97.53;95615.38;1711995;82;20949;-86
2022/09/16 00:21:55;;;;;;;6.60;4.30;;;;;;;13.41;96.70;95608.80;1718291;83;21353;-86
2022/09/16 00:24:20;;;;;;;6.42;4.55;;;;;;;13.43;98.01;95609.37;1720617;82;20964;-86
2022/09/16 00:26:46;;;;;;;8.10;4.70;;;;;;;13.45;98.22;95615.16;1722046;82;21336;-87
2022/09/16 00:29:12;;;;;;;7.53;4.47;;;;;;;13.45;96.89;95607.84;1721325;82;21032;-86
2022/09/16 00:31:38;;;;;;;7.45;3.92;;;;;;;13.46;97.39;95614.14;1687032;84;20965;-86
2022/09/16 00:34:03;;;;;;;7.40;3.75;;;;;;;13.48;97.62;95611.31;1718869;82;20965;-87
2022/09/16 00:36:29;;;;;;;6.45;3.50;;;;;;;13.48;97.73;95610.81;1715555;82;20942;-86
2022/09/16 00:38:55;;;;;;;5.28;4.22;;;;;;;13.51;98.02;95612.21;1724887;82;21032;-87
2022/09/16 00:41:25;;;;;;;5.65;4.03;;;;;;;13.55;98.30;95600.31;1715611;82;21014;-86
2022/09/16 00:44:38;;;;;;;7.15;3.65;;;;;;;13.58;98.22;95600.38;1713239;82;21392;-86
2022/09/16 00:47:04;;;;;;;6.58;4.05;;;;;;;13.59;98.25;95602.77;1699710;82;20954;-86
2022/09/16 00:49:30;;;;;;;7.50;5.00;;;;;;;13.61;98.09;95601.23;1713210;82;20925;-86
2022/09/16 00:52:00;;;;;;;10.32;4.42;;;;;;;13.61;98.36;95596.81;1722488;82;21308;-86
2022/09/16 00:54:26;;;;;;;10.85;4.28;;;;;;;13.61;98.34;95592.10;1713223;82;20998;-87
2022/09/16 00:56:54;;;;;;;6.42;3.47;;;;;;;13.63;98.55;95597.39;1692032;83;20988;-87
2022/09/16 00:59:30;;;;;;;7.87;3.50;;;;;;;13.65;98.32;95597.16;1701929;82;20960;-85
2022/09/16 01:01:59;;;;;;;6.20;4.10;;;;;;;13.66;98.44;95607.89;1697672;83;21017;-87
2022/09/16 01:04:29;;;;;;;7.15;4.35;;;;;;;13.66;98.16;95600.86;1721520;82;20988;-87
2022/09/16 01:06:56;;;;;;;5.70;3.87;;;;;;;13.65;98.23;95602.39;1718570;82;20964;-87
2022/09/16 01:09:23;;;;;;;9.25;4.20;;;;;;;13.64;98.24;95602.89;1719131;82;21025;-87
2022/09/16 01:11:48;;;;;;;6.17;3.70;;;;;;;13.66;98.37;95601.36;1723398;82;20948;-87
2022/09/16 01:17:20;;;;;;;5.03;4.08;;;;;;;13.71;98.51;95611.46;1719074;82;21411;-87
2022/09/16 01:20:14;;;;;;;7.87;4.50;;;;;;;13.76;98.58;95608.18;1701721;82;20975;-87
2022/09/16 01:23:15;;;;;;;6.90;4.08;;;;;;;13.73;98.54;95614.64;1714176;82;21004;-87
2022/09/16 01:26:09;;;;;;;10.28;6.05;;;;;;;13.71;98.51;95616.68;1721590;82;20938;-87
2022/09/16 01:28:59;;;;;;;8.53;4.80;;;;;;;13.69;98.43;95620.02;1706835;82;21019;-87
2022/09/16 01:32:04;;;;;;;10.80;6.00;;;;;;;13.70;98.45;95619.00;1719714;82;21000;-87
2022/09/16 01:34:44;;;;;;;8.43;5.62;;;;;;;13.65;97.26;95626.67;1718962;82;20993;-87
2022/09/16 01:37:41;;;;;;;9.18;7.12;;;;;;;13.64;97.45;95626.89;1719033;82;20963;-87
2022/09/16 01:40:31;;;;;;;8.23;7.37;;;;;;;13.62;97.65;95627.12;1697558;82;20993;-87
2022/09/16 01:43:11;;;;;;;11.55;7.58;;;;;;;13.62;97.93;95617.98;1720910;82;21025;-87
2022/09/16 01:46:00;;;;;;;10.63;6.75;;;;;;;13.63;97.95;95617.47;1675651;84;21093;-87
2022/09/16 01:48:43;;;;;;;8.50;6.72;;;;;;;13.64;98.35;95618.55;1693230;84;21092;-86
2022/09/16 01:51:33;;;;;;;8.45;6.75;;;;;;;13.67;98.30;95612.13;1722964;82;21021;-86
2022/09/16 01:54:07;;;;;;;13.18;7.35;;;;;;;13.68;98.29;95616.33;1715475;82;21031;-87
2022/09/16 01:56:45;;;;;;;10.50;7.58;;;;;;;13.68;97.98;95623.66;1719465;82;21052;-87
2022/09/16 01:59:37;;;;;;;11.33;7.40;;;;;;;13.67;98.19;95618.14;1722406;82;20932;-87
2022/09/16 02:02:20;;;;;;;11.20;8.13;;;;;;;13.66;97.79;95621.74;1721241;82;21009;-85
2022/09/16 02:04:55;;;;;;;11.90;8.55;;;;;;;13.63;98.11;95623.48;1700274;82;20991;-86
2022/09/16 02:07:26;;;;;;;13.48;9.55;;;;;;;13.64;98.30;95626.89;1713851;82;20928;-87
2022/09/16 02:09:56;;;;;;;9.83;8.38;;;;;;;13.64;98.29;95628.20;1711508;83;21001;-86
2022/09/16 02:12:29;;;;;;;12.45;9.25;;;;;;;13.63;98.28;95631.83;1726370;82;21047;-87
2022/09/16 02:15:00;;;;;;;11.95;8.90;;;;;;;13.61;98.18;95632.56;1723920;82;21010;-87
2022/09/16 02:17:26;;;;;;;10.77;8.97;;;;;;;13.56;98.31;95631.12;1723780;82;21370;-84
2022/09/16 02:20:00;;;;;;;9.65;8.60;;;;;;;13.58;98.53;95630.39;1703811;82;20945;-87
2022/09/16 02:22:37;;;;;;;11.30;9.15;;;;;;;13.61;98.63;95640.39;1694346;82;20973;-87
2022/09/16 02:25:03;;;;;;;9.83;8.85;;;;;;;13.58;98.39;95640.83;1723325;82;21316;-87
2022/09/16 02:27:28;;;;;;;10.78;8.20;;;;;;;13.55;98.48;95639.97;1721667;82;21013;-87
2022/09/16 02:29:58;;;;;;;13.70;8.70;;;;;;;13.58;98.83;95636.41;1716819;82;20952;-87
2022/09/16 02:32:25;;;;;;;9.60;8.30;;;;;;;13.63;98.84;95646.98;1722700;82;21343;-87
2022/09/16 02:34:51;;;;;;;12.53;9.15;;;;;;;13.66;99.07;95645.23;1704074;82;21035;-87
2022/09/16 02:37:28;;;;;;;10.48;9.30;;;;;;;13.66;98.80;95642.63;1723137;82;21044;-87
2022/09/16 02:39:56;;;;;;;10.32;8.88;;;;;;;13.63;98.55;95640.97;1705880;82;20945;-87
2022/09/16 02:42:22;;;;;;;11.45;9.00;;;;;;;13.60;98.48;95642.20;1721575;82;21022;-88
2022/09/16 02:44:48;;;;;;;10.28;8.43;;;;;;;13.61;98.65;95637.27;1722323;82;21064;-87
2022/09/16 02:47:34;;;;;;;10.05;8.20;;;;;;;13.61;98.28;95633.86;1721284;82;20985;-86
2022/09/16 02:50:17;;;;;;;9.13;8.23;;;;;;;13.61;98.09;95638.58;1715529;82;20994;-87
2022/09/16 02:52:52;;;;;;;;;;;;;;;13.56;97.83;95638.44;1720072;82;21019;-87
2022/09/16 02:55:52;;;;;;;10.18;8.10;;;;;;;13.50;97.82;95634.08;1722588;82;20126;-87
2022/09/16 02:58:18;;;;;;;10.48;7.85;;;;;;;13.47;97.87;95635.31;1713345;82;21412;-87
2022/09/16 03:00:47;;;;;;;8.83;7.60;;;;;;;13.43;98.01;95632.06;1721162;82;21037;-87
2022/09/16 03:03:13;;;;;;;8.15;7.35;;;;;;;13.39;97.51;95633.52;1713206;82;21019;-87
2022/09/16 03:06:07;;;;;;;9.90;7.83;;;;;;;13.34;97.48;95632.87;1716309;82;20940;-87
2022/09/16 03:08:33;;;;;;;8.05;6.95;;;;;;;13.32;97.07;95624.44;1717484;82;20993;-87
2022/09/16 03:11:11;;;;;;;8.90;7.70;;;;;;;13.29;97.05;95626.69;1716202;82;20926;-87
2022/09/16 03:13:45;;;;;;;8.10;6.03;;;;;;;13.28;96.75;95620.67;1706720;83;21001;-87
2022/09/16 03:16:21;;;;;;;9.18;5.80;;;;;;;13.25;96.63;95621.11;1717464;82;21445;-87
2022/09/16 03:19:08;;;;;;;8.40;6.37;;;;;;;13.20;96.14;95611.84;1701727;83;21033;-87
2022/09/16 03:22:02;;;;;;;8.13;5.97;;;;;;;13.23;96.41;95613.22;1705600;82;21005;-86
2022/09/16 03:24:55;;;;;;;6.50;5.83;;;;;;;13.22;95.94;95617.63;1721554;82;21006;-88
2022/09/16 03:27:35;;;;;;;7.97;5.55;;;;;;;13.19;95.89;95616.77;1719610;82;20965;-87
2022/09/16 03:30:05;;;;;;;5.40;4.42;;;;;;;13.13;95.76;95614.47;1664228;85;21017;-87
2022/09/16 03:32:35;;;;;;;5.87;5.28;;;;;;;13.08;94.93;95615.62;1670348;84;20991;-86
2022/09/16 03:35:15;;;;;;;8.05;4.47;;;;;;;13.08;95.67;95614.83;1699113;82;21054;-87
2022/09/16 03:37:41;;;;;;;7.92;5.42;;;;;;;13.09;96.08;95618.52;1719336;82;21028;-87
2022/09/16 03:40:13;;;;;;;5.97;4.42;;;;;;;13.09;96.60;95622.44;1722393;82;20952;-87
2022/09/16 03:42:39;;;;;;;5.05;4.17;;;;;;;13.12;96.47;95627.72;1724385;82;20963;-87
2022/09/16 03:45:07;;;;;;;5.70;4.28;;;;;;;13.13;95.63;95629.31;1721600;82;21101;-86
2022/09/16 03:47:32;;;;;;;6.12;4.50;;;;;;;13.12;96.48;95628.52;1723437;82;21050;-85
2022/09/16 03:49:58;;;;;;;6.53;3.95;;;;;;;13.11;95.40;95625.63;1716460;83;21337;-85
2022/09/16 03:52:24;;;;;;;6.10;4.15;;;;;;;13.07;96.10;95624.47;1723653;82;20984;-85
2022/09/16 03:54:50;;;;;;;5.85;4.17;;;;;;;13.05;96.34;95622.58;1716065;83;21025;-84
2022/09/16 03:57:15;;;;;;;4.42;3.58;;;;;;;13.02;95.96;95633.45;1722837;82;20978;-85
2022/09/16 03:59:41;;;;;;;5.65;3.45;;;;;;;13.00;95.34;95634.14;1713636;83;21405;-86
2022/09/16 04:02:07;;;;;;;6.00;3.67;;;;;;;13.01;95.21;95636.25;1721789;82;21052;-85
2022/09/16 04:04:33;;;;;;;3.77;3.30;;;;;;;13.03;95.45;95636.34;1719738;82;20946;-85
2022/09/16 04:06:58;;;;;;;6.10;4.03;;;;;;;13.00;94.29;95643.27;1718354;83;20957;-85
2022/09/16 04:09:25;;;;;;;5.45;4.12;;;;;;;12.89;93.94;95644.79;1724057;82;21318;-85
2022/09/16 04:11:52;;;;;;;7.25;5.12;;;;;;;12.83;93.51;95644.83;1718862;83;21346;-85
2022/09/16 04:14:17;;;;;;;5.05;4.50;;;;;;;12.77;93.20;95640.48;1719672;83;20958;-84
2022/09/16 04:16:44;;;;;;;5.83;4.58;;;;;;;12.70;93.63;95635.84;1709804;82;21994;-85
2022/09/16 04:19:12;;;;;;;6.12;4.10;;;;;;;12.67;94.07;95642.75;1691296;83;20964;-85
2022/09/16 04:21:39;;;;;;;6.90;4.62;;;;;;;12.65;93.74;95651.29;1719583;83;21364;-85
2022/09/16 04:24:05;;;;;;;7.10;5.00;;;;;;;12.60;93.50;95646.72;1724447;82;21234;-85
2022/09/16 04:26:31;;;;;;;5.72;4.75;;;;;;;12.59;93.38;95646.43;1683483;83;21351;-86
2022/09/16 04:28:57;;;;;;;6.50;5.33;;;;;;;12.57;93.53;95644.04;1715614;82;20947;-85
2022/09/16 04:31:22;;;;;;;6.90;5.20;;;;;;;12.56;93.24;95651.56;1723277;82;21337;-85
2022/09/16 04:33:48;;;;;;;8.05;5.10;;;;;;;12.52;93.61;95654.28;1722175;82;21041;-86
2022/09/16 04:36:17;;;;;;;7.67;5.20;;;;;;;12.44;93.09;95646.73;1725326;82;20931;-86
2022/09/16 04:38:44;;;;;;;7.15;4.85;;;;;;;12.38;93.32;95655.40;1722845;83;21435;-85
2022/09/16 04:41:13;;;;;;;6.65;5.20;;;;;;;12.36;93.78;95655.29;1724043;82;20951;-85
2022/09/16 04:43:38;;;;;;;4.75;4.30;;;;;;;12.36;93.41;95654.78;1723580;82;20965;-85
2022/09/16 04:46:05;;;;;;;6.22;4.72;;;;;;;12.34;93.45;95651.59;1721598;82;21321;-85
2022/09/16 04:48:31;;;;;;;6.55;4.80;;;;;;;12.32;93.07;95654.92;1721330;82;21348;-85
2022/09/16 04:51:07;;;;;;;6.87;4.55;;;;;;;12.29;92.76;95648.83;1714472;82;21005;-85
2022/09/16 04:53:34;;;;;;;5.42;4.92;;;;;;;12.26;92.69;95642.74;1718643;82;21382;-85
2022/09/16 04:56:08;;;;;;;6.17;4.33;;;;;;;12.25;92.96;95642.45;1724434;82;20932;-85
2022/09/16 04:58:34;;;;;;;5.75;3.80;;;;;;;12.27;94.31;95647.74;1705128;82;21020;-85
2022/09/16 05:01:13;;;;;;;4.92;3.72;;;;;;;12.27;93.56;95650.85;1723614;82;21008;-85
2022/09/16 05:03:40;;;;;;;5.10;3.87;;;;;;;12.29;93.56;95650.13;1712890;82;21024;-85
2022/09/16 05:06:12;;;;;;;6.10;3.77;;;;;;;12.28;92.27;95643.33;1723385;82;20955;-85
2022/09/16 05:08:38;;;;;;;8.63;4.10;;;;;;;12.29;93.02;95638.41;1722390;82;21367;-85
2022/09/16 05:11:10;;;;;;;4.70;4.03;;;;;;;12.29;93.60;95630.59;1721584;82;21004;-85
2022/09/16 05:13:36;;;;;;;4.33;3.40;;;;;;;12.29;93.93;95622.78;1722248;82;21040;-85
2022/09/16 05:16:09;;;;;;;4.97;3.37;;;;;;;12.29;93.33;95626.19;1721044;82;21048;-85
2022/09/16 05:18:36;;;;;;;4.10;2.70;;;;;;;12.29;94.09;95623.58;1717165;83;21044;-85
2022/09/16 05:21:03;;;;;;;4.92;3.10;;;;;;;12.28;93.50;95623.80;1721642;82;20966;-85
2022/09/16 05:23:29;;;;;;;3.37;2.80;;;;;;;12.29;94.43;95617.58;1722951;82;20961;-85
2022/09/16 05:26:05;;;;;;;4.28;2.15;;;;;;;12.30;94.02;95619.17;1686763;83;20925;-85
2022/09/16 05:28:32;;;;;;;3.25;2.58;;;;;;;12.28;92.78;95627.20;1664111;83;21006;-85
2022/09/16 05:31:27;;;;;;;5.62;2.65;;;;;;;12.31;92.54;95631.18;1695878;83;20943;-85
2022/09/16 05:33:55;;;;;;;5.05;2.92;;;;;;;12.35;94.07;95645.38;1712977;83;21003;-85
2022/09/16 05:36:21;;;;;;;4.12;3.00;;;;;;;12.26;93.65;95629.72;1667891;84;21096;-85
2022/09/16 05:38:47;;;;;;;6.83;2.65;;;;;;;12.34;94.31;95647.69;1677189;83;21066;-85
2022/09/16 05:41:13;;;;;;;3.98;2.45;;;;;;;12.33;93.52;95651.30;1698983;83;21088;-86
2022/09/16 05:43:39;;;;;;;4.75;2.60;;;;;;;12.34;94.10;95655.50;1702562;83;21375;-85
2022/09/16 05:46:06;;;;;;;3.72;2.30;;;;;;;12.37;93.63;95656.91;1721402;82;21111;-86
2022/09/16 05:48:32;;;;;;;3.55;2.40;;;;;;;12.39;92.41;95658.80;1721840;82;20947;-85
2022/09/16 05:51:05;;;;;;;4.33;2.90;;;;;;;12.36;91.41;95653.48;1717816;82;20941;-85
2022/09/16 05:53:32;;;;;;;5.28;3.02;;;;;;;12.36;91.73;95657.39;1716092;82;21088;-86
2022/09/16 05:56:12;;;;;;;3.00;2.50;;;;;;;12.33;90.62;95656.01;1724137;82;20967;-85
2022/09/16 05:58:38;;;;;;;2.83;2.50;;;;;;;12.33;91.23;95646.89;1722290;82;20940;-85
2022/09/16 06:01:10;;;;;;;5.08;3.40;;;;;;;12.34;89.71;95634.66;1722975;82;21093;-87
2022/09/16 06:03:39;;;;;;;4.15;3.33;;;;;;;12.35;90.56;95625.84;1718415;82;20927;-86
2022/09/16 06:06:25;;;;;;;5.53;3.15;;;;;;;12.36;90.53;95624.03;1714731;82;21025;-86
2022/09/16 06:08:54;;;;;;;7.83;3.67;;;;;;;12.38;90.51;95624.14;1721025;82;20970;-87
2022/09/16 06:11:20;;;;;;;3.20;2.90;;;;;;;12.43;90.93;95622.99;1714478;82;20957;-87
2022/09/16 06:13:46;;;;;;;5.12;2.65;;;;;;;12.44;90.88;95621.98;1717350;82;21028;-87
2022/09/16 06:16:13;;;;;;;4.10;2.60;;;;;;;12.46;89.52;95616.55;1715505;82;21096;-87
2022/09/16 06:18:39;;;;;;;2.95;2.25;;;;;;;12.49;89.34;95622.64;1713111;82;21048;-85
2022/09/16 06:21:09;;;;;;;6.37;3.05;;;;;;;12.53;88.93;95622.53;1712670;82;20980;-85
2022/09/16 06:23:35;;;;;;;6.58;3.02;;;;;;;12.57;88.60;95623.70;1692777;82;20958;-85
2022/09/16 06:26:04;;;;;;;5.03;3.00;;;;;;;12.67;88.78;95624.51;1706506;82;21015;-85
2022/09/16 06:28:31;;;;;;;4.37;2.60;;;;;;;12.71;88.38;95624.39;1717776;82;21371;-85
2022/09/16 06:31:09;;;;;;;5.67;2.70;;;;;;;12.81;88.75;95631.21;1719696;82;20969;-85
2022/09/16 06:33:35;;;;;;;3.95;2.47;;;;;;;12.86;88.45;95642.61;1724751;82;20981;-84
2022/09/16 06:36:11;;;;;;;5.03;2.10;;;;;;;12.91;86.67;95630.23;1687316;83;20984;-85
2022/09/16 06:38:37;;;;;;;5.42;2.70;;;;;;;12.98;86.32;95623.64;1690665;84;20956;-85
2022/09/16 06:41:05;;;;;;;3.72;2.60;;;;;;;13.02;86.53;95632.15;1706301;83;20980;-85
2022/09/16 06:43:31;;;;;;;4.08;3.00;;;;;;;13.07;86.50;95633.59;1693981;83;20958;-85
2022/09/16 06:46:08;;;;;;;3.85;2.72;;;;;;;13.13;87.11;95632.72;1677561;83;21001;-86
2022/09/16 06:48:33;;;;;;;3.47;2.60;;;;;;;13.22;87.57;95631.98;1677096;85;20979;-85
2022/09/16 06:51:04;;;;;;;3.77;2.58;;;;;;;13.32;87.72;95623.64;1705962;82;21387;-85
2022/09/16 06:53:30;;;;;;;5.70;3.55;;;;;;;13.38;85.95;95625.40;1673875;85;21473;-85
2022/09/16 06:56:03;;;;;;;4.28;2.55;;;;;;;13.44;86.43;95620.09;1674860;84;20999;-85
2022/09/16 06:58:33;;;;;;;4.72;2.10;;;;;;;13.49;86.05;95619.43;1691690;84;20996;-85
2022/09/16 07:01:15;;;;;;;3.70;2.33;;;;;;;13.53;85.27;95621.13;1690768;83;21009;-86
2022/09/16 07:03:43;;;;;;;1.85;1.60;;;;;;;13.55;84.34;95619.09;1712230;83;20973;-85
2022/09/16 07:06:09;;;;;;;5.75;2.10;;;;;;;13.58;84.35;95611.61;1700555;83;20983;-85
2022/09/16 07:08:36;;;;;;;4.92;2.05;;;;;;;13.63;84.54;95618.27;1726214;82;21001;-85
2022/09/16 07:11:08;;;;;;;2.50;1.77;;;;;;;13.65;83.73;95628.48;1719191;82;20985;-85
2022/09/16 07:13:33;;;;;;;3.77;1.70;;;;;;;13.66;82.72;95623.55;1645980;86;21031;-85
2022/09/16 07:16:01;;;;;;;4.47;1.50;;;;;;;13.73;83.30;95630.81;1703018;83;20979;-85
2022/09/16 07:18:29;;;;;;;4.53;1.67;;;;;;;13.82;82.69;95642.54;1721759;83;20989;-84
2022/09/16 07:21:04;;;;;;;2.80;1.65;;;;;;;13.92;81.97;95645.44;1716768;83;20978;-86
2022/09/16 07:23:31;;;;;;;4.85;1.32;;;;;;;14.01;81.53;95642.83;1706225;83;21050;-85
2022/09/16 07:26:07;;;;;;;3.30;1.30;;;;;;;14.07;81.36;95635.41;1722085;82;20956;-85
2022/09/16 07:28:34;;;;;;;2.55;1.45;;;;;;;14.09;80.56;95640.40;1721124;82;21044;-85
2022/09/16 07:31:01;;;;;;;2.70;1.17;;;;;;;14.09;81.23;95624.73;1722827;82;21017;-85
2022/09/16 07:33:29;;;;;;;3.27;1.62;;;;;;;14.14;81.56;95628.77;1724912;82;21037;-85
2022/09/16 07:35:59;;;;;;;3.67;1.37;;;;;;;14.21;80.55;95637.84;1719296;83;20966;-85
2022/09/16 07:38:25;;;;;;;2.60;1.32;;;;;;;14.23;79.42;95635.29;1721700;82;21071;-85
2022/09/16 07:40:51;;;;;;;2.15;1.15;;;;;;;14.23;79.02;95647.05;1721841;83;21372;-86
2022/09/16 07:43:17;;;;;;;4.95;1.55;;;;;;;14.22;79.25;95649.37;1722256;83;20970;-85
2022/09/16 07:45:43;;;;;;;3.72;1.50;;;;;;;14.20;78.46;95640.96;1720127;82;21019;-86
2022/09/16 07:48:09;;;;;;;4.67;1.72;;;;;;;14.22;79.84;95645.45;1678578;84;21006;-86
2022/09/16 07:50:34;;;;;;;2.52;1.30;;;;;;;14.20;78.58;95659.25;1687189;84;20995;-85
2022/09/16 07:53:00;;;;;;;3.98;1.22;;;;;;;14.20;78.71;95661.06;1722655;82;20928;-85
2022/09/16 07:55:26;;;;;;;4.70;1.60;;;;;;;14.22;78.06;95658.52;1722330;82;20980;-86
2022/09/16 07:57:52;;;;;;;2.27;1.50;;;;;;;14.25;78.84;95660.68;1725358;82;21052;-85
2022/09/16 08:00:18;;;;;;;2.80;1.60;;;;;;;14.26;79.04;95658.35;1716926;82;20941;-85
2022/09/16 08:02:43;;;;;;;3.30;1.60;;;;;;;14.24;78.66;95649.94;1720441;82;20957;-86
2022/09/16 08:05:09;;;;;;;4.90;1.92;;;;;;;14.27;79.20;95656.03;1721657;82;21021;-85
2022/09/16 08:07:36;;;;;;;3.47;1.70;;;;;;;14.33;79.03;95655.16;1723979;82;20928;-86
2022/09/16 08:10:01;;;;;;;3.83;1.77;;;;;;;14.35;78.37;95654.42;1705922;82;20957;-86
2022/09/16 08:12:31;;;;;;;5.85;1.82;;;;;;;14.45;77.82;95661.73;1718992;82;20985;-85
2022/09/16 08:14:55;;;;;;;3.05;1.77;;;;;;;14.55;78.43;95662.52;1712896;82;21016;-85
2022/09/16 08:17:22;;;;;;;3.98;1.60;;;;;;;14.59;78.08;95668.88;1722886;82;21062;-86
2022/09/16 08:19:48;;;;;;;3.95;1.35;;;;;;;14.63;77.49;95668.71;1715588;82;20941;-85
2022/09/16 08:22:14;;;;;;;4.97;1.40;;;;;;;14.66;77.82;95673.01;1717579;82;20992;-85
2022/09/16 08:24:40;;;;;;;5.25;3.22;;;;;;;14.70;77.32;95674.66;1719851;82;20910;-84
2022/09/16 08:27:05;;;;;;;5.15;2.40;;;;;;;14.76;76.98;95672.95;1722747;82;21008;-86
2022/09/16 08:29:32;;;;;;;4.40;2.25;;;;;;;14.82;76.78;95676.79;1716100;82;20962;-86
2022/09/16 08:31:57;;;;;;;4.60;2.55;;;;;;;14.78;76.51;95671.70;1717739;82;20976;-86
2022/09/16 08:34:23;;;;;;;4.60;2.00;;;;;;;14.78;76.74;95666.47;1713157;82;21058;-85
2022/09/16 08:36:49;;;;;;;5.17;1.80;;;;;;;14.78;76.78;95665.67;1692946;83;21343;-85
2022/09/16 08:39:14;;;;;;;2.45;1.82;;;;;;;14.78;76.76;95661.75;1674056;84;20961;-86
2022/09/16 08:42:12;;;;;;;3.02;1.60;;;;;;;14.84;77.22;95666.90;1678535;84;21019;-86
2022/09/16 08:44:52;;;;;;;1.75;1.12;;;;;;;14.89;76.66;95669.63;1677728;84;20989;-86
2022/09/16 08:47:55;;;;;;;2.77;1.30;;;;;;;14.92;77.34;95667.06;1677210;84;21059;-86
2022/09/16 08:50:26;;;;;;;3.60;1.25;;;;;;;14.99;76.52;95673.00;1663425;85;20994;-86
2022/09/16 08:52:52;;;;;;;3.08;1.20;;;;;;;15.13;77.20;95671.77;1676574;84;20943;-86
2022/09/16 08:55:30;;;;;;;3.37;1.77;;;;;;;15.16;75.71;95664.77;1674574;85;21443;-86
2022/09/16 08:58:06;;;;;;;3.25;1.60;;;;;;;15.19;75.66;95664.30;1685440;84;21461;-86
2022/09/16 09:00:33;;;;;;;4.03;1.52;;;;;;;15.25;74.66;95669.13;1686615;85;20949;-85
2022/09/16 09:03:41;;;;;;;4.40;1.87;;;;;;;15.20;74.61;95669.82;1689538;85;20988;-86
2022/09/16 09:06:21;;;;;;;5.75;2.60;;;;;;;15.18;74.31;95668.46;1665846;85;21044;-86
2022/09/16 09:08:53;;;;;;;7.97;4.15;;;;;;;15.15;74.15;95664.48;1653489;85;20990;-86
2022/09/16 09:11:50;;;;;;;12.78;5.83;;;;;;;15.13;75.47;95666.53;1676987;84;21042;-86
2022/09/16 09:15:01;;;;;;;9.88;4.65;;;;;;;15.17;75.91;95670.28;1650517;85;21863;-86
2022/09/16 09:17:43;;;;;;;3.55;1.90;;;;;;;15.30;75.07;95673.19;1676536;84;21095;-87
2022/09/16 09:20:21;;;;;;;;;;;;;;;15.27;73.87;95671.80;1652297;85;21047;-86
2022/09/16 09:23:08;;;;;;;5.03;2.42;;;;;;;15.29;73.64;95675.49;1663475;85;20095;-86
2022/09/16 09:25:51;;;;;;;6.65;2.72;;;;;;;15.31;74.33;95672.95;1675095;85;21005;-86
2022/09/16 09:28:57;;;;;;;3.72;2.45;;;;;;;15.30;74.02;95679.22;1663106;86;21011;-86
2022/09/16 09:31:40;;;;;;;5.92;1.52;;;;;;;15.30;74.14;95671.87;1688047;85;21052;-86
2022/09/16 09:34:24;;;;;;;8.03;6.10;;;;;;;15.33;73.92;95672.73;1680216;84;21016;-86
2022/09/16 09:37:16;;;;;;;8.80;4.70;;;;;;;15.38;74.06;95673.34;1670924;84;20979;-86
2022/09/16 09:39:59;;;;;;;3.40;1.65;;;;;;;15.43;75.05;95672.13;1677077;84;21049;-86
2022/09/16 09:42:30;;;;;;;3.87;1.95;;;;;;;15.44;73.98;95680.27;1689488;85;20968;-87
2022/09/16 09:45:12;;;;;;;4.17;1.98;;;;;;;15.46;74.61;95672.50;1686860;84;20975;-86
2022/09/16 09:47:53;;;;;;;5.28;2.40;;;;;;;15.44;73.91;95677.14;1687936;84;21094;-86
2022/09/16 09:50:29;;;;;;;2.85;1.57;;;;;;;15.37;73.75;95689.56;1722628;82;21298;-86
2022/09/16 09:53:19;;;;;;;3.35;1.40;;;;;;;15.29;74.21;95687.27;1718563;83;20931;-86
2022/09/16 09:55:45;;;;;;;2.50;1.40;;;;;;;15.30;75.15;95691.00;1706865;83;20949;-86
2022/09/16 09:58:25;;;;;;;4.78;2.33;;;;;;;15.36;74.33;95689.28;1711569;82;20953;-86
2022/09/16 10:00:57;;;;;;;3.20;1.50;;;;;;;15.41;74.94;95685.45;1723034;82;20982;-86
2022/09/16 10:03:24;;;;;;;2.42;1.55;;;;;;;15.52;75.50;95689.90;1717394;83;21032;-86
2022/09/16 10:05:50;;;;;;;2.95;1.30;;;;;;;15.56;73.92;95687.09;1721860;82;20955;-86
2022/09/16 10:08:27;;;;;;;4.67;1.40;;;;;;;15.58;74.23;95690.80;1724646;82;20983;-86
2022/09/16 10:10:58;;;;;;;4.70;2.58;;;;;;;15.61;74.16;95693.77;1722224;83;21012;-86
2022/09/16 10:13:25;;;;;;;4.05;2.72;;;;;;;15.61;73.07;95703.45;1739094;82;21354;-87
2022/09/16 10:16:06;;;;;;;4.08;2.02;;;;;;;15.53;72.67;95688.08;1723730;82;20928;-86
2022/09/16 10:18:33;;;;;;;3.77;1.70;;;;;;;15.50;73.38;95681.99;1721895;82;21043;-86
2022/09/16 10:21:13;;;;;;;3.10;1.50;;;;;;;15.46;71.41;95678.25;1701515;83;21001;-86
2022/09/16 10:23:39;;;;;;;4.83;1.32;;;;;;;15.48;72.05;95682.23;1718456;82;20965;-89
2022/09/16 10:26:24;;;;;;;3.77;1.30;;;;;;;15.60;71.65;95676.47;1721267;83;21342;-91
2022/09/16 10:29:01;;;;;;;2.20;1.52;;;;;;;15.68;72.24;95677.95;1719826;82;20990;-90
2022/09/16 10:31:32;;;;;;;2.45;1.50;;;;;;;15.83;72.29;95669.10;1711750;83;21057;-90
2022/09/16 10:33:58;;;;;;;4.28;1.80;;;;;;;15.91;72.00;95666.10;1689638;84;21022;-90
2022/09/16 10:36:25;;;;;;;3.33;1.82;;;;;;;15.94;71.79;95666.14;1724598;82;21022;-91
2022/09/16 10:38:55;;;;;;;2.58;1.25;;;;;;;15.91;71.95;95659.55;1721852;82;20983;-91
2022/09/16 10:41:31;;;;;;;2.65;1.42;;;;;;;15.89;71.65;95662.13;1724505;82;20970;-91
2022/09/16 10:44:00;;;;;;;1.77;1.30;;;;;;;15.80;72.46;95659.61;1716817;82;21353;-90
2022/09/16 10:46:25;;;;;;;2.12;1.20;;;;;;;15.70;72.07;95662.00;1725251;82;20955;-91
2022/09/16 10:48:53;;;;;;;2.72;1.37;;;;;;;15.63;71.09;95651.67;1723244;82;20992;-90
2022/09/16 10:51:25;;;;;;;2.33;1.17;;;;;;;15.65;72.31;95657.98;1716350;82;21016;-90
2022/09/16 10:53:57;;;;;;;3.55;1.15;;;;;;;15.64;71.84;95663.73;1702201;82;21028;-91
2022/09/16 10:56:29;;;;;;;1.55;1.12;;;;;;;15.66;71.99;95659.58;1707234;82;21036;-91
2022/09/16 10:59:06;;;;;;;;;;;;;;;15.83;71.80;95659.14;1709336;82;21001;-90
2022/09/16 11:02:09;;;;;;;2.62;1.10;;;;;;;15.93;71.53;95661.94;1709549;82;20127;-90
2022/09/16 11:05:06;;;;;;;2.05;1.05;;;;;;;15.93;70.78;95649.36;1712100;82;21057;-90
2022/09/16 11:07:42;;;;;;;2.95;1.40;;;;;;;16.03;70.24;95650.36;1716611;82;21024;-90
2022/09/16 11:10:34;;;;;;;3.40;1.27;;;;;;;16.06;69.78;95653.02;1724466;82;20985;-90
2022/09/16 11:13:33;;;;;;;;;;;;;;;16.08;70.16;95651.75;1727310;82;20958;-91
2022/09/16 11:16:14;;;;;;;6.95;1.27;;;;;;;15.95;69.10;95646.02;1720000;82;20155;-90
2022/09/16 11:19:18;;;;;;;3.02;1.60;;;;;;;15.84;68.91;95648.42;1720609;82;21407;-90
2022/09/16 11:22:20;;;;;;;3.15;1.30;;;;;;;15.78;69.34;95636.75;1698178;83;21023;-90
2022/09/16 11:25:09;;;;;;;1.85;0.85;;;;;;;15.78;70.57;95636.27;1705477;82;20961;-90
2022/09/16 11:27:59;;;;;;;3.60;1.47;;;;;;;15.82;70.01;95636.08;1718200;82;21041;-90
2022/09/16 11:30:25;;;;;;;1.40;1.02;;;;;;;15.99;69.32;95633.52;1724453;82;21031;-90
2022/09/16 11:33:02;;;;;;;2.87;1.50;;;;;;;16.10;69.63;95630.03;1710530;82;21356;-90
2022/09/16 11:36:07;;;;;;;2.25;1.30;;;;;;;16.14;68.23;95630.39;1715026;82;21389;-90
2022/09/16 11:39:26;;;;;;;2.33;1.37;;;;;;;16.38;68.95;95631.85;1724746;82;21080;-90
2022/09/16 11:42:16;;;;;;;2.95;1.57;;;;;;;16.68;67.85;95622.94;1691835;82;20983;-90
2022/09/16 11:45:24;;;;;;;2.75;1.32;;;;;;;16.65;66.67;95621.56;1721172;82;21030;-91
2022/09/16 11:48:09;;;;;;;2.15;1.17;;;;;;;16.61;67.24;95616.52;1682259;84;21181;-90
2022/09/16 11:50:58;;;;;;;2.90;1.15;;;;;;;16.59;66.63;95615.94;1603435;87;21406;-90
2022/09/16 11:53:53;;;;;;;2.80;1.30;;;;;;;16.51;66.63;95625.52;1677638;82;21339;-90
2022/09/16 11:56:56;;;;;;;3.15;1.40;;;;;;;16.45;66.90;95625.17;1717750;82;21818;-91
2022/09/16 11:59:46;;;;;;;4.15;1.47;;;;;;;16.44;65.98;95615.20;1720910;82;20983;-90
2022/09/16 12:02:18;;;;;;;2.22;1.32;;;;;;;16.44;67.01;95619.13;1714325;82;20980;-90
2022/09/16 12:04:49;;;;;;;1.95;1.27;;;;;;;16.42;66.27;95619.86;1721524;82;21128;-90
2022/09/16 12:07:27;;;;;;;2.30;1.20;;;;;;;16.39;66.29;95616.40;1721913;82;21005;-91